Flight Track Log - Related Links

Times and Time Zones

All times are in EDT time to prevent confusion due to time zone crossing. See the ASQ5685 flight status page for this flight to view local times or setup timezone preferences in your user account.


Time Position Orientation Groundspeed Altitude Reporting Facility
EDT Latitude Longitude Course Direction KTS MPH feet Rate Location/Type
Wed 09:58:27 AM 33.6333 -84.4667 48° Northeast 154 177 2,200  Level Atlanta TRACON
Wed 09:59:27 AM 33.6000 -84.5333 239° Southwest 236 272 3,800 2,200 Climbing Atlanta TRACON
Wed 10:00:27 AM 33.5500 -84.5833 220° Southwest 280 322 6,600 2,328 Climbing Atlanta TRACON
Wed 10:01:00 AM 33.7733 -83.9392 54° Northeast  Level FlightAware Approximate
Wed 10:01:41 AM 33.4675 -84.5642 169° South 303 349 9,000  Level Atlanta Center
Wed 10:02:00 AM 33.8356 -83.8352 54° Northeast  Level FlightAware Approximate
Wed 10:02:41 AM 33.4575 -84.4644 97° East 276 318 10,600  Level Atlanta Center
Wed 10:03:00 AM 33.9026 -83.7355 48° Northeast  Level FlightAware Approximate
Wed 10:03:41 AM 33.4558 -84.3400 91° East 291 335 11,800  Level Atlanta Center
Wed 10:04:41 AM 33.5019 -84.2406 61° Northeast 299 344 13,200 1,400 Climbing Atlanta Center
Wed 10:05:41 AM 33.5917 -84.1858 27° Northeast 308 354 14,600 1,300 Climbing Atlanta Center
Wed 10:06:41 AM 33.6814 -84.1286 28° Northeast 332 382 15,800 1,100 Climbing Atlanta Center
Wed 10:07:41 AM 33.7589 -84.0489 41° Northeast 354 407 16,800 1,100 Climbing Atlanta Center
Wed 10:08:41 AM 33.8172 -83.9364 58° Northeast 373 429 18,000 1,050 Climbing Atlanta Center
Wed 10:09:41 AM 33.8733 -83.8236 59° Northeast 378 435 18,900 850 Climbing Atlanta Center
Wed 10:10:41 AM 33.9317 -83.7108 58° Northeast 391 450 19,700 750 Climbing Atlanta Center
Wed 10:11:41 AM 33.9981 -83.6053 53° Northeast 397 457 20,400 750 Climbing Atlanta Center
Wed 10:12:41 AM 34.0664 -83.4972 53° Northeast 397 457 21,200 800 Climbing Atlanta Center
Wed 10:13:41 AM 34.1347 -83.3889 53° Northeast 403 464 22,000 700 Climbing Atlanta Center
Wed 10:14:41 AM 34.2031 -83.2778 53° Northeast 410 472 22,600 750 Climbing Atlanta Center
Wed 10:15:41 AM 34.2733 -83.1639 53° Northeast 410 472 23,500 850 Climbing Atlanta Center
Wed 10:16:41 AM 34.3456 -83.0500 52° Northeast 416 479 24,300 650 Climbing Atlanta Center
Wed 10:17:41 AM 34.4072 -82.9486 54° Northeast 422 486 24,800 500 Climbing Atlanta Center
Wed 10:18:41 AM 34.4792 -82.8267 54° Northeast 427 491 25,300 500 Climbing Atlanta Center
Wed 10:19:41 AM 34.5531 -82.7097 52° Northeast 432 497 25,800 500 Climbing Atlanta Center
Wed 10:20:41 AM 34.6289 -82.5897 52° Northeast 443 510 26,300 500 Climbing Atlanta Center
Wed 10:21:41 AM 34.7025 -82.4722 53° Northeast 443 510 26,800 500 Climbing Atlanta Center
Wed 10:22:41 AM 34.7739 -82.3469 55° Northeast 443 510 27,300 500 Climbing Atlanta Center
Wed 10:23:41 AM 34.8450 -82.2192 56° Northeast 443 510 27,800 500 Climbing Atlanta Center
Wed 10:24:41 AM 34.9222 -82.0831 55° Northeast 449 517 28,300 500 Climbing Atlanta Center
Wed 10:25:41 AM 34.9892 -81.9572 57° Northeast 449 517 28,800 350 Climbing Atlanta Center
Wed 10:26:41 AM 35.0600 -81.8311 56° Northeast 449 517 29,000 100 Climbing Atlanta Center
Wed 10:27:41 AM 35.1308 -81.7075 55° Northeast 449 517 29,000  Level Atlanta Center
Wed 10:28:41 AM 35.1892 -81.5964 57° Northeast 444 511 29,000  Level Atlanta Center
Wed 10:29:41 AM 35.2533 -81.4725 58° Northeast 439 505 29,000  Level Atlanta Center
Wed 10:30:41 AM 35.3156 -81.3536 57° Northeast 428 493 29,000  Level Atlanta Center
Wed 10:31:41 AM 35.3794 -81.2342 57° Northeast 417 480 29,000 -500 Level Atlanta Center
Wed 10:32:41 AM 35.4436 -81.1172 56° Northeast 417 480 28,000 -1,000 Descending Atlanta Center
Wed 10:33:41 AM 35.5075 -80.9953 57° Northeast 417 480 27,000 -500 Descending Atlanta Center
Wed 10:34:41 AM 35.5711 -80.8806 56° Northeast 417 480 27,000  Level Atlanta Center
Wed 10:35:41 AM 35.6328 -80.7656 57° Northeast 417 480 27,000  Level Atlanta Center
Wed 10:37:43 AM 35.7581 -80.5244 57° Northeast 387 445 27,000  Level Washington Center
Wed 10:38:43 AM 35.8189 -80.4128 56° Northeast 387 445 27,000  Level Washington Center
Wed 10:39:43 AM 35.8800 -80.2961 57° Northeast 392 451 27,000  Level Washington Center
Wed 10:40:44 AM 35.9386 -80.1792 58° Northeast 397 457 27,000  Level Washington Center
Wed 10:41:44 AM 35.9994 -80.0644 57° Northeast 397 457 27,000  Level Washington Center
Wed 10:42:45 AM 36.0600 -79.9472 57° Northeast 397 457 27,000  Level Washington Center
Wed 10:43:43 AM 36.1247 -79.8350 54° Northeast 397 457 27,000  Level Washington Center
Wed 10:44:44 AM 36.1911 -79.7253 53° Northeast 397 457 27,000  Level Washington Center
Wed 10:45:46 AM 36.2467 -79.6253 55° Northeast 397 457 27,000  Level Washington Center
Wed 10:46:44 AM 36.3156 -79.4972 56° Northeast 397 457 27,000  Level Washington Center
Wed 10:47:45 AM 36.3842 -79.3769 55° Northeast 416 479 27,000  Level Washington Center
Wed 10:48:43 AM 36.4528 -79.2536 55° Northeast 416 479 27,000  Level Washington Center
Wed 10:49:44 AM 36.5233 -79.1278 55° Northeast 426 490 27,000 -246 Level Washington Center
Wed 10:50:45 AM 36.5936 -78.9992 56° Northeast 441 507 26,500 -756 Descending Washington Center
Wed 10:51:43 AM 36.6661 -78.8753 54° Northeast 441 507 25,500 -756 Descending Washington Center
Wed 10:52:44 AM 36.7253 -78.7664 56° Northeast 434 499 25,000 -248 Descending Washington Center
Wed 10:53:44 AM 36.7933 -78.6369 57° Northeast 415 478 25,000  Level Washington Center
Wed 10:54:44 AM 36.8611 -78.5150 55° Northeast 410 472 25,000 -496 Level Washington Center
Wed 10:55:45 AM 36.9264 -78.3953 56° Northeast 415 478 24,000 -942 Descending Washington Center
Wed 10:56:45 AM 36.9917 -78.2781 55° Northeast 410 472 23,100 -508 Descending Washington Center
Wed 10:57:43 AM 37.0606 -78.1919 45° Northeast 403 464 23,000 -50 Descending Washington Center
Wed 10:58:44 AM 37.1558 -78.1169 32° Northeast 376 433 23,000 -99 Level Washington Center
Wed 10:59:44 AM 37.2469 -78.0494 31° Northeast 376 433 22,800 -500 Descending Washington Center
Wed 11:00:44 AM 37.3339 -77.9792 33° Northeast 371 427 22,000 -397 Descending Washington Center
Wed 11:01:45 AM 37.4208 -77.9139 31° Northeast 371 427 22,000  Level Washington Center
Wed 11:02:43 AM 37.5056 -77.8486 31° Northeast 366 421 22,000  Level Washington Center
Wed 11:03:43 AM 37.5919 -77.7933 27° Northeast 361 415 22,000 -800 Level Washington Center
Wed 11:04:43 AM 37.6786 -77.7408 26° Northeast 355 409 20,400 -1,686 Descending Washington Center
Wed 11:05:44 AM 37.7669 -77.6933 23° Northeast 344 396 18,600 -1,850 Descending Washington Center
Wed 11:06:43 AM 37.8514 -77.6406 26° Northeast 344 396 16,700 -1,866 Descending Washington Center
Wed 11:07:43 AM 37.9356 -77.5900 25° Northeast 339 390 14,900 3,124 Descending Washington Center
Wed 11:08:44 AM 38.0156 -77.5422 25° Northeast 334 384 23,000 -1,770 Climbing Washington Center
Wed 11:09:45 AM 38.0872 -77.5017 24° Northeast 323 372 11,300 -6,446 Descending Washington Center
Wed 11:10:45 AM 38.1650 -77.4589 23° Northeast 307 353 10,000 -661 Descending Washington Center
Wed 11:11:43 AM 38.2303 -77.4183 26° Northeast 280 322 10,000 -504 Level Washington Center
Wed 11:12:44 AM 38.2992 -77.4172 North 246 283 9,000 -1,091 Descending Washington Center
Wed 11:13:44 AM 38.3656 -77.4400 345° North 240 276 7,800 -1,200 Descending Washington Center
Wed 11:14:44 AM 38.4361 -77.4472 355° North 240 276 6,600 -1,190 Descending Washington Center
Wed 11:15:45 AM 38.5031 -77.4461 North 240 276 5,400 -1,200 Descending Washington Center
Wed 11:16:44 AM 38.5697 -77.4450 North 235 270 4,200 -706 Descending Washington Center
Wed 11:17:44 AM 38.6364 -77.4442 North 235 270 4,000 -124 Descending Washington Center
Wed 11:18:21 AM 38.6833 -77.4333 10° North 241 277 4,000  Level Potomac TRACON
Wed 11:19:21 AM 38.7500 -77.4333 360° North 166 191 4,000 -400 Level Potomac TRACON
Wed 11:20:21 AM 38.7833 -77.4333 360° North 163 188 3,200 -900 Descending Potomac TRACON
Wed 11:21:21 AM 38.8333 -77.4333 360° North 167 192 2,200 -900 Descending Potomac TRACON
Wed 11:22:21 AM 38.8667 -77.4333 360° North 141 162 1,400 -750 Descending Potomac TRACON
Wed 11:23:21 AM 38.9000 -77.4333 360° North 128 147 700 -700 Descending Potomac TRACON

Login

Don't have an account? Register now (free) for customized features, flight alerts, and more!